JBU914 KFLL-KHPN
Flight info
| Callsign | JBU914 |
|---|---|
| Flight time | 2h 48m |
| Altitude | 35000 |
| Route | FEALX2 ETECK ROWSY Y309 FLRDA SAGGY CHIEZ Q161 KALDA Q108 SIE BOUNO5 |
| Aircraft | A320/M-SDE3FGHIRWY/LB1 |
Departure
| Time | 2026-05-05 18:40 |
|---|---|
| Airport | Fort Lauderdale Hollywood International Airport (KFLL) |
Arrival
| Time | 2026-05-05 21:28 |
|---|---|
| Airport | Westchester County Airport (KHPN) |
| Time | Latitude | Longitude | Altitude | Speed | Heading |
|---|---|---|---|---|---|
| 2026-05-05 17:43 | 26.07151 | -80.14648 | 16 ft | 0 kts | 179° |
| 2026-05-05 18:27 | 26.07168 | -80.14648 | 17 ft | 4 kts | 174° |
| 2026-05-05 18:27 | 26.07193 | -80.14655 | 18 ft | 4 kts | 142° |
| 2026-05-05 18:27 | 26.07204 | -80.14672 | 18 ft | 3 kts | 101° |
| 2026-05-05 18:28 | 26.07231 | -80.14716 | 18 ft | 4 kts | 111° |
| 2026-05-05 18:28 | 26.07233 | -80.14742 | 16 ft | 4 kts | 64° |
| 2026-05-05 18:28 | 26.07222 | -80.14754 | 17 ft | 4 kts | 334° |
| 2026-05-05 18:29 | 26.07213 | -80.14736 | 17 ft | 4 kts | 275° |
| 2026-05-05 18:29 | 26.07212 | -80.14725 | 16 ft | 0 kts | 275° |
| 2026-05-05 18:33 | 26.07214 | -80.14740 | 17 ft | 4 kts | 283° |
| 2026-05-05 18:33 | 26.07234 | -80.14792 | 16 ft | 10 kts | 297° |
| 2026-05-05 18:34 | 26.07283 | -80.14848 | 16 ft | 11 kts | 337° |
| 2026-05-05 18:34 | 26.07359 | -80.14864 | 16 ft | 12 kts | 327° |
| 2026-05-05 18:34 | 26.07385 | -80.14929 | 16 ft | 9 kts | 298° |
| 2026-05-05 18:34 | 26.07402 | -80.14989 | 16 ft | 9 kts | 249° |
| 2026-05-05 18:35 | 26.07355 | -80.15044 | 17 ft | 11 kts | 224° |
| 2026-05-05 18:35 | 26.07299 | -80.15106 | 16 ft | 12 kts | 225° |
| 2026-05-05 18:35 | 26.07223 | -80.15128 | 16 ft | 12 kts | 180° |
| 2026-05-05 18:35 | 26.07130 | -80.15128 | 16 ft | 14 kts | 179° |
| 2026-05-05 18:36 | 26.07022 | -80.15129 | 16 ft | 16 kts | 180° |
| 2026-05-05 18:36 | 26.06901 | -80.15130 | 16 ft | 18 kts | 180° |
| 2026-05-05 18:36 | 26.06804 | -80.15131 | 16 ft | 12 kts | 180° |
| 2026-05-05 18:36 | 26.06729 | -80.15131 | 16 ft | 9 kts | 182° |
| 2026-05-05 18:37 | 26.06695 | -80.15178 | 16 ft | 9 kts | 266° |
| 2026-05-05 18:37 | 26.06696 | -80.15264 | 16 ft | 15 kts | 270° |
| 2026-05-05 18:37 | 26.06696 | -80.15401 | 16 ft | 19 kts | 270° |
| 2026-05-05 18:37 | 26.06698 | -80.15553 | 16 ft | 18 kts | 270° |
| 2026-05-05 18:38 | 26.06698 | -80.15658 | 16 ft | 12 kts | 270° |
| 2026-05-05 18:38 | 26.06699 | -80.15747 | 16 ft | 10 kts | 270° |
| 2026-05-05 18:38 | 26.06683 | -80.15810 | 17 ft | 7 kts | 224° |
| 2026-05-05 18:38 | 26.06635 | -80.15822 | 17 ft | 7 kts | 178° |
| 2026-05-05 18:39 | 26.06590 | -80.15813 | 19 ft | 5 kts | 138° |
| 2026-05-05 18:39 | 26.06588 | -80.15789 | 19 ft | 0 kts | 89° |
| 2026-05-05 18:39 | 26.06588 | -80.15770 | 19 ft | 17 kts | 89° |
| 2026-05-05 18:39 | 26.06586 | -80.15334 | 22 ft | 92 kts | 90° |
| 2026-05-05 18:40 | 26.06580 | -80.14400 | 61 ft | 145 kts | 91° |
| 2026-05-05 18:40 | 26.06554 | -80.13215 | 584 ft | 155 kts | 91° |
| 2026-05-05 18:40 | 26.06566 | -80.12016 | 1388 ft | 155 kts | 88° |
| 2026-05-05 18:40 | 26.06597 | -80.10790 | 1764 ft | 171 kts | 86° |
| 2026-05-05 18:41 | 26.06647 | -80.09413 | 2104 ft | 186 kts | 86° |
| 2026-05-05 18:41 | 26.06712 | -80.07903 | 2449 ft | 201 kts | 86° |
| 2026-05-05 18:41 | 26.06741 | -80.06280 | 2651 ft | 225 kts | 88° |
| 2026-05-05 18:41 | 26.06740 | -80.04441 | 2960 ft | 250 kts | 89° |
| 2026-05-05 18:42 | 26.06729 | -80.02428 | 3456 ft | 267 kts | 87° |
| 2026-05-05 18:42 | 26.07132 | -80.00406 | 4195 ft | 272 kts | 61° |
| 2026-05-05 18:42 | 26.08266 | -79.98712 | 4932 ft | 277 kts | 48° |
| 2026-05-05 18:42 | 26.09508 | -79.97065 | 5745 ft | 281 kts | 48° |
| 2026-05-05 18:43 | 26.10765 | -79.95376 | 6533 ft | 285 kts | 49° |
| 2026-05-05 18:43 | 26.12032 | -79.93664 | 7265 ft | 289 kts | 49° |
| 2026-05-05 18:43 | 26.13322 | -79.91915 | 7988 ft | 294 kts | 49° |
| 2026-05-05 18:43 | 26.14630 | -79.90141 | 8729 ft | 298 kts | 49° |
| 2026-05-05 18:44 | 26.15952 | -79.88341 | 9433 ft | 303 kts | 50° |
| 2026-05-05 18:44 | 26.17248 | -79.86462 | 10091 ft | 308 kts | 51° |
| 2026-05-05 18:44 | 26.18541 | -79.84491 | 10439 ft | 326 kts | 52° |
| 2026-05-05 18:44 | 26.19907 | -79.82367 | 10565 ft | 348 kts | 52° |
| 2026-05-05 18:45 | 26.21350 | -79.80108 | 10750 ft | 366 kts | 52° |
| 2026-05-05 18:45 | 26.22831 | -79.77800 | 11199 ft | 374 kts | 52° |
| 2026-05-05 18:45 | 26.24359 | -79.75430 | 11724 ft | 378 kts | 52° |
| 2026-05-05 18:45 | 26.25853 | -79.73121 | 12268 ft | 382 kts | 52° |
| 2026-05-05 18:46 | 26.27417 | -79.70714 | 12825 ft | 386 kts | 51° |
| 2026-05-05 18:46 | 26.29012 | -79.68290 | 13373 ft | 389 kts | 49° |
| 2026-05-05 18:46 | 26.30833 | -79.66065 | 13906 ft | 390 kts | 43° |
| 2026-05-05 18:46 | 26.32736 | -79.63887 | 14393 ft | 393 kts | 42° |
| 2026-05-05 18:47 | 26.34649 | -79.61699 | 14901 ft | 396 kts | 42° |
| 2026-05-05 18:47 | 26.36574 | -79.59492 | 15406 ft | 398 kts | 42° |
| 2026-05-05 18:47 | 26.38504 | -79.57269 | 15901 ft | 400 kts | 42° |
| 2026-05-05 18:47 | 26.40447 | -79.55028 | 16393 ft | 402 kts | 42° |
| 2026-05-05 18:48 | 26.42398 | -79.52778 | 16898 ft | 405 kts | 42° |
| 2026-05-05 18:48 | 26.44357 | -79.50514 | 17403 ft | 407 kts | 41° |
| 2026-05-05 18:48 | 26.46333 | -79.48232 | 17902 ft | 409 kts | 41° |
| 2026-05-05 18:48 | 26.48321 | -79.45943 | 18400 ft | 412 kts | 41° |
| 2026-05-05 18:49 | 26.50321 | -79.43641 | 18810 ft | 414 kts | 41° |
| 2026-05-05 18:49 | 26.52335 | -79.41318 | 19208 ft | 418 kts | 41° |
| 2026-05-05 18:49 | 26.54382 | -79.38996 | 19605 ft | 419 kts | 37° |
| 2026-05-05 18:49 | 26.56659 | -79.36993 | 20006 ft | 416 kts | 27° |
| 2026-05-05 18:50 | 26.59130 | -79.35305 | 20412 ft | 417 kts | 25° |
| 2026-05-05 18:50 | 26.61619 | -79.33623 | 20812 ft | 420 kts | 25° |
| 2026-05-05 18:50 | 26.64127 | -79.31923 | 21191 ft | 422 kts | 25° |
| 2026-05-05 18:50 | 26.66608 | -79.30234 | 21580 ft | 425 kts | 25° |
| 2026-05-05 18:51 | 26.69174 | -79.28482 | 21946 ft | 427 kts | 25° |
| 2026-05-05 18:51 | 26.71680 | -79.26771 | 22045 ft | 428 kts | 25° |
| 2026-05-05 18:51 | 26.74226 | -79.25033 | 22227 ft | 430 kts | 25° |
| 2026-05-05 18:51 | 26.76781 | -79.23289 | 22652 ft | 432 kts | 25° |
| 2026-05-05 18:52 | 26.79361 | -79.21529 | 23025 ft | 434 kts | 25° |
| 2026-05-05 18:52 | 26.81946 | -79.19765 | 23387 ft | 437 kts | 25° |
| 2026-05-05 18:52 | 26.84544 | -79.17992 | 23719 ft | 439 kts | 25° |
| 2026-05-05 18:52 | 26.87165 | -79.16202 | 24012 ft | 441 kts | 25° |
| 2026-05-05 18:53 | 26.89787 | -79.14411 | 24319 ft | 442 kts | 25° |
| 2026-05-05 18:53 | 26.92418 | -79.12614 | 24626 ft | 444 kts | 25° |
| 2026-05-05 18:53 | 26.95054 | -79.10810 | 24941 ft | 445 kts | 25° |
| 2026-05-05 18:53 | 26.97707 | -79.08992 | 25249 ft | 446 kts | 25° |
| 2026-05-05 18:54 | 27.00357 | -79.07175 | 25556 ft | 448 kts | 25° |
| 2026-05-05 18:54 | 27.03017 | -79.05351 | 25874 ft | 449 kts | 25° |
| 2026-05-05 18:54 | 27.05688 | -79.03519 | 26187 ft | 451 kts | 24° |
| 2026-05-05 18:54 | 27.08378 | -79.01673 | 26505 ft | 453 kts | 24° |
| 2026-05-05 18:55 | 27.11042 | -78.99840 | 26825 ft | 454 kts | 24° |
| 2026-05-05 18:55 | 27.13776 | -78.97959 | 27150 ft | 456 kts | 24° |
| 2026-05-05 18:55 | 27.16447 | -78.96122 | 27483 ft | 457 kts | 24° |
| 2026-05-05 18:55 | 27.19147 | -78.94262 | 27947 ft | 455 kts | 24° |
| 2026-05-05 18:56 | 27.21844 | -78.92402 | 28427 ft | 453 kts | 24° |
| 2026-05-05 18:56 | 27.24522 | -78.90557 | 28905 ft | 451 kts | 24° |
| 2026-05-05 18:56 | 27.27194 | -78.88716 | 29382 ft | 449 kts | 24° |
| 2026-05-05 18:56 | 27.29856 | -78.86880 | 29865 ft | 448 kts | 24° |
| 2026-05-05 18:57 | 27.32503 | -78.85056 | 30318 ft | 446 kts | 24° |
| 2026-05-05 18:57 | 27.35146 | -78.83232 | 30737 ft | 444 kts | 24° |
| 2026-05-05 18:57 | 27.37781 | -78.81457 | 31184 ft | 437 kts | 19° |
| 2026-05-05 18:57 | 27.40518 | -78.80104 | 31641 ft | 424 kts | 10° |
| 2026-05-05 18:58 | 27.43328 | -78.79274 | 32103 ft | 411 kts | 2° |
| 2026-05-05 18:58 | 27.46132 | -78.78848 | 32589 ft | 405 kts | 359° |
| 2026-05-05 18:58 | 27.48918 | -78.78450 | 33094 ft | 401 kts | 359° |
| 2026-05-05 18:58 | 27.51671 | -78.78047 | 33613 ft | 397 kts | 359° |
| 2026-05-05 18:59 | 27.54392 | -78.77643 | 34121 ft | 392 kts | 359° |
| 2026-05-05 18:59 | 27.57090 | -78.77242 | 34540 ft | 389 kts | 359° |
| 2026-05-05 18:59 | 27.59762 | -78.76848 | 34904 ft | 386 kts | 359° |
| 2026-05-05 18:59 | 27.62429 | -78.76459 | 35064 ft | 388 kts | 358° |
| 2026-05-05 19:00 | 27.67826 | -78.75684 | 35079 ft | 398 kts | 359° |
| 2026-05-05 19:00 | 27.73330 | -78.74875 | 35081 ft | 399 kts | 359° |
| 2026-05-05 19:01 | 27.77916 | -78.74195 | 35079 ft | 400 kts | 359° |
| 2026-05-05 19:01 | 27.83428 | -78.73386 | 35079 ft | 400 kts | 359° |
| 2026-05-05 19:02 | 27.88950 | -78.72571 | 35082 ft | 400 kts | 359° |
| 2026-05-05 19:02 | 27.94469 | -78.71767 | 35105 ft | 400 kts | 358° |
| 2026-05-05 19:03 | 27.99981 | -78.70961 | 35100 ft | 399 kts | 359° |
| 2026-05-05 19:03 | 28.05490 | -78.70151 | 35096 ft | 399 kts | 358° |
| 2026-05-05 19:04 | 28.11002 | -78.69345 | 35095 ft | 399 kts | 359° |
| 2026-05-05 19:04 | 28.16505 | -78.68529 | 35101 ft | 399 kts | 359° |
| 2026-05-05 19:05 | 28.22001 | -78.67709 | 35112 ft | 396 kts | 358° |
| 2026-05-05 19:05 | 28.27398 | -78.66910 | 35103 ft | 393 kts | 358° |
| 2026-05-05 19:06 | 28.32816 | -78.66106 | 35104 ft | 393 kts | 358° |
| 2026-05-05 19:06 | 28.38236 | -78.65302 | 35102 ft | 393 kts | 358° |
| 2026-05-05 19:07 | 28.43648 | -78.64493 | 35101 ft | 393 kts | 358° |
| 2026-05-05 19:07 | 28.49074 | -78.63694 | 35132 ft | 393 kts | 358° |
| 2026-05-05 19:08 | 28.54493 | -78.62893 | 35113 ft | 393 kts | 358° |
| 2026-05-05 19:08 | 28.59909 | -78.62083 | 35120 ft | 392 kts | 358° |
| 2026-05-05 19:09 | 28.65330 | -78.61272 | 35115 ft | 392 kts | 358° |
| 2026-05-05 19:09 | 28.70734 | -78.60466 | 35107 ft | 392 kts | 358° |
| 2026-05-05 19:10 | 28.76138 | -78.59653 | 35102 ft | 392 kts | 358° |
| 2026-05-05 19:10 | 28.81541 | -78.58841 | 35122 ft | 391 kts | 358° |
| 2026-05-05 19:11 | 28.86933 | -78.58036 | 35118 ft | 391 kts | 358° |
| 2026-05-05 19:11 | 28.92326 | -78.57236 | 35115 ft | 391 kts | 358° |
| 2026-05-05 19:12 | 28.97688 | -78.56428 | 35112 ft | 391 kts | 358° |
| 2026-05-05 19:12 | 29.03083 | -78.55615 | 35114 ft | 391 kts | 358° |
| 2026-05-05 19:13 | 29.08474 | -78.54808 | 35129 ft | 391 kts | 358° |
| 2026-05-05 19:13 | 29.13861 | -78.53993 | 35120 ft | 391 kts | 358° |
| 2026-05-05 19:14 | 29.19259 | -78.53177 | 35123 ft | 391 kts | 358° |
| 2026-05-05 19:14 | 29.24653 | -78.52355 | 35119 ft | 391 kts | 358° |
| 2026-05-05 19:15 | 29.30056 | -78.51535 | 35116 ft | 391 kts | 358° |
| 2026-05-05 19:15 | 29.35456 | -78.50725 | 35141 ft | 392 kts | 358° |
| 2026-05-05 19:16 | 29.40829 | -78.49915 | 35132 ft | 392 kts | 358° |
| 2026-05-05 19:16 | 29.46233 | -78.49088 | 35131 ft | 392 kts | 358° |
| 2026-05-05 19:17 | 29.51641 | -78.48242 | 35125 ft | 393 kts | 359° |
| 2026-05-05 19:17 | 29.57054 | -78.47281 | 35125 ft | 394 kts | 359° |
| 2026-05-05 19:18 | 29.62468 | -78.46288 | 35151 ft | 394 kts | 359° |
| 2026-05-05 19:18 | 29.67880 | -78.45310 | 35139 ft | 394 kts | 359° |
| 2026-05-05 19:19 | 29.73298 | -78.44356 | 35133 ft | 394 kts | 359° |
| 2026-05-05 19:19 | 29.78716 | -78.43405 | 35129 ft | 394 kts | 359° |
| 2026-05-05 19:20 | 29.84139 | -78.42436 | 35124 ft | 394 kts | 359° |
| 2026-05-05 19:20 | 29.89559 | -78.41468 | 35161 ft | 394 kts | 359° |
| 2026-05-05 19:21 | 29.94985 | -78.40504 | 35143 ft | 394 kts | 359° |
| 2026-05-05 19:21 | 30.00374 | -78.39543 | 35134 ft | 395 kts | 359° |
| 2026-05-05 19:22 | 30.05801 | -78.38571 | 35132 ft | 395 kts | 359° |
| 2026-05-05 19:22 | 30.11228 | -78.37594 | 35128 ft | 395 kts | 359° |
| 2026-05-05 19:23 | 30.16660 | -78.36624 | 35127 ft | 395 kts | 359° |
| 2026-05-05 19:23 | 30.22093 | -78.35655 | 35126 ft | 395 kts | 359° |
| 2026-05-05 19:24 | 30.27527 | -78.34692 | 35125 ft | 395 kts | 359° |
| 2026-05-05 19:24 | 30.32964 | -78.33715 | 35126 ft | 395 kts | 359° |
| 2026-05-05 19:25 | 30.38396 | -78.32732 | 35125 ft | 395 kts | 359° |
| 2026-05-05 19:25 | 30.43835 | -78.31757 | 35162 ft | 395 kts | 359° |
| 2026-05-05 19:26 | 30.49242 | -78.30789 | 35145 ft | 395 kts | 359° |
| 2026-05-05 19:26 | 30.54680 | -78.29813 | 35143 ft | 396 kts | 359° |
| 2026-05-05 19:27 | 30.60125 | -78.28831 | 35135 ft | 396 kts | 359° |
| 2026-05-05 19:27 | 30.65567 | -78.27837 | 35135 ft | 396 kts | 359° |
| 2026-05-05 19:28 | 30.71017 | -78.26848 | 35159 ft | 396 kts | 359° |
| 2026-05-05 19:28 | 30.76464 | -78.25868 | 35160 ft | 396 kts | 359° |
| 2026-05-05 19:29 | 30.81916 | -78.24879 | 35150 ft | 397 kts | 359° |
| 2026-05-05 19:29 | 30.87373 | -78.23884 | 35141 ft | 397 kts | 359° |
| 2026-05-05 19:30 | 30.92793 | -78.22902 | 35137 ft | 397 kts | 359° |
| 2026-05-05 19:30 | 30.98250 | -78.21813 | 35168 ft | 399 kts | 1° |
| 2026-05-05 19:31 | 31.03709 | -78.20565 | 35157 ft | 400 kts | 2° |
| 2026-05-05 19:31 | 31.09169 | -78.19313 | 35149 ft | 400 kts | 1° |
| 2026-05-05 19:32 | 31.14641 | -78.18074 | 35141 ft | 400 kts | 1° |
| 2026-05-05 19:32 | 31.20102 | -78.16855 | 35140 ft | 400 kts | 1° |
| 2026-05-05 19:33 | 31.25565 | -78.15641 | 35164 ft | 400 kts | 1° |
| 2026-05-05 19:33 | 31.31035 | -78.14420 | 35156 ft | 400 kts | 1° |
| 2026-05-05 19:34 | 31.36498 | -78.13202 | 35149 ft | 400 kts | 1° |
| 2026-05-05 19:35 | 31.44704 | -78.11389 | 35145 ft | 399 kts | 0° |
| 2026-05-05 19:35 | 31.50177 | -78.10431 | 35141 ft | 397 kts | 359° |
| 2026-05-05 19:36 | 31.55651 | -78.09568 | 35161 ft | 397 kts | 359° |
| 2026-05-05 19:36 | 31.61084 | -78.08675 | 35153 ft | 397 kts | 360° |
| 2026-05-05 19:37 | 31.66560 | -78.07737 | 35147 ft | 398 kts | 360° |
| 2026-05-05 19:37 | 31.72032 | -78.06792 | 35143 ft | 398 kts | 360° |
| 2026-05-05 19:38 | 31.77510 | -78.05846 | 35139 ft | 398 kts | 360° |
| 2026-05-05 19:38 | 31.82982 | -78.04906 | 35154 ft | 398 kts | 0° |
| 2026-05-05 19:39 | 31.88458 | -78.03966 | 35145 ft | 397 kts | 0° |
| 2026-05-05 19:39 | 31.93928 | -78.03029 | 35140 ft | 397 kts | 0° |
| 2026-05-05 19:40 | 31.99397 | -78.02088 | 35141 ft | 397 kts | 0° |
| 2026-05-05 19:40 | 32.04868 | -78.01138 | 35178 ft | 397 kts | 0° |
| 2026-05-05 19:41 | 32.10339 | -78.00184 | 35166 ft | 397 kts | 0° |
| 2026-05-05 19:41 | 32.15807 | -77.99234 | 35154 ft | 397 kts | 0° |
| 2026-05-05 19:42 | 32.21270 | -77.98292 | 35152 ft | 397 kts | 0° |
| 2026-05-05 19:42 | 32.26697 | -77.97360 | 35147 ft | 396 kts | 0° |
| 2026-05-05 19:43 | 32.32157 | -77.96419 | 35164 ft | 397 kts | 0° |
| 2026-05-05 19:43 | 32.37616 | -77.95463 | 35165 ft | 396 kts | 1° |
| 2026-05-05 19:44 | 32.43026 | -77.94515 | 35144 ft | 392 kts | 1° |
| 2026-05-05 19:44 | 32.48429 | -77.93576 | 35142 ft | 392 kts | 1° |
| 2026-05-05 19:45 | 32.53823 | -77.92639 | 35138 ft | 392 kts | 1° |
| 2026-05-05 19:45 | 32.59221 | -77.91696 | 35157 ft | 392 kts | 1° |
| 2026-05-05 19:46 | 32.64619 | -77.90741 | 35150 ft | 392 kts | 1° |
| 2026-05-05 19:46 | 32.70017 | -77.89797 | 35147 ft | 392 kts | 1° |
| 2026-05-05 19:47 | 32.75382 | -77.88858 | 35145 ft | 392 kts | 1° |
| 2026-05-05 19:47 | 32.80775 | -77.87916 | 35146 ft | 392 kts | 1° |
| 2026-05-05 19:48 | 32.86171 | -77.86968 | 35140 ft | 392 kts | 1° |
| 2026-05-05 19:48 | 32.91569 | -77.86021 | 35138 ft | 392 kts | 1° |
| 2026-05-05 19:49 | 32.96964 | -77.85066 | 35137 ft | 392 kts | 1° |
| 2026-05-05 19:49 | 33.02357 | -77.84111 | 35138 ft | 392 kts | 1° |
| 2026-05-05 19:50 | 33.07755 | -77.83153 | 35139 ft | 392 kts | 1° |
| 2026-05-05 19:50 | 33.13153 | -77.82203 | 35158 ft | 392 kts | 1° |
| 2026-05-05 19:51 | 33.18519 | -77.81253 | 35148 ft | 392 kts | 1° |
| 2026-05-05 19:51 | 33.23911 | -77.80298 | 35150 ft | 392 kts | 1° |
| 2026-05-05 19:52 | 33.29314 | -77.79339 | 35147 ft | 392 kts | 1° |
| 2026-05-05 19:52 | 33.34710 | -77.78381 | 35136 ft | 392 kts | 1° |
| 2026-05-05 19:53 | 33.40107 | -77.77420 | 35146 ft | 393 kts | 1° |
| 2026-05-05 19:53 | 33.44606 | -77.76620 | 35145 ft | 393 kts | 1° |
| 2026-05-05 19:54 | 33.50008 | -77.75658 | 35140 ft | 393 kts | 1° |
| 2026-05-05 19:54 | 33.55413 | -77.74676 | 35136 ft | 393 kts | 1° |
| 2026-05-05 19:55 | 33.60822 | -77.73692 | 35158 ft | 393 kts | 1° |
| 2026-05-05 19:55 | 33.66232 | -77.72711 | 35151 ft | 393 kts | 1° |
| 2026-05-05 19:56 | 33.71641 | -77.71691 | 35141 ft | 394 kts | 2° |
| 2026-05-05 19:56 | 33.77017 | -77.70519 | 35139 ft | 395 kts | 3° |
| 2026-05-05 19:57 | 33.82420 | -77.69297 | 35136 ft | 395 kts | 3° |
| 2026-05-05 19:57 | 33.87824 | -77.68096 | 35156 ft | 395 kts | 3° |
| 2026-05-05 19:58 | 33.93233 | -77.66916 | 35142 ft | 395 kts | 3° |
| 2026-05-05 19:58 | 33.98647 | -77.65741 | 35137 ft | 395 kts | 3° |
| 2026-05-05 19:59 | 34.04056 | -77.64561 | 35134 ft | 395 kts | 3° |
| 2026-05-05 19:59 | 34.09471 | -77.63369 | 35131 ft | 395 kts | 3° |
| 2026-05-05 20:00 | 34.14885 | -77.62180 | 35140 ft | 395 kts | 3° |
| 2026-05-05 20:00 | 34.20307 | -77.60996 | 35139 ft | 396 kts | 3° |
| 2026-05-05 20:01 | 34.25730 | -77.59803 | 35139 ft | 396 kts | 3° |
| 2026-05-05 20:01 | 34.31158 | -77.58600 | 35147 ft | 396 kts | 3° |
| 2026-05-05 20:02 | 34.36586 | -77.57400 | 35169 ft | 396 kts | 3° |
| 2026-05-05 20:02 | 34.42007 | -77.56206 | 35145 ft | 396 kts | 3° |
| 2026-05-05 20:03 | 34.47392 | -77.55025 | 35136 ft | 396 kts | 3° |
| 2026-05-05 20:03 | 34.52777 | -77.53440 | 35132 ft | 407 kts | 14° |
| 2026-05-05 20:04 | 34.57914 | -77.50411 | 35129 ft | 411 kts | 17° |
| 2026-05-05 20:04 | 34.63048 | -77.47329 | 35140 ft | 412 kts | 17° |
| 2026-05-05 20:05 | 34.68186 | -77.44253 | 35135 ft | 412 kts | 17° |
| 2026-05-05 20:05 | 34.73329 | -77.41173 | 35132 ft | 412 kts | 17° |
| 2026-05-05 20:06 | 34.78473 | -77.38080 | 35128 ft | 412 kts | 17° |
| 2026-05-05 20:06 | 34.83618 | -77.34983 | 35129 ft | 412 kts | 18° |
| 2026-05-05 20:07 | 34.88760 | -77.31877 | 35139 ft | 413 kts | 17° |
| 2026-05-05 20:07 | 34.93878 | -77.28791 | 35134 ft | 413 kts | 17° |
| 2026-05-05 20:08 | 34.99030 | -77.25692 | 35131 ft | 413 kts | 17° |
| 2026-05-05 20:08 | 35.04192 | -77.22569 | 35148 ft | 414 kts | 18° |
| 2026-05-05 20:09 | 35.09346 | -77.19438 | 35152 ft | 414 kts | 18° |
| 2026-05-05 20:09 | 35.14504 | -77.16308 | 35143 ft | 413 kts | 18° |
| 2026-05-05 20:10 | 35.19653 | -77.13186 | 35127 ft | 413 kts | 18° |
| 2026-05-05 20:10 | 35.24802 | -77.10056 | 35122 ft | 413 kts | 18° |
| 2026-05-05 20:11 | 35.29914 | -77.06940 | 35114 ft | 413 kts | 18° |
| 2026-05-05 20:11 | 35.35055 | -77.03800 | 35110 ft | 413 kts | 18° |
| 2026-05-05 20:12 | 35.40195 | -77.00669 | 35105 ft | 413 kts | 18° |
| 2026-05-05 20:12 | 35.45338 | -76.97523 | 35103 ft | 413 kts | 18° |
| 2026-05-05 20:13 | 35.50479 | -76.94372 | 35102 ft | 413 kts | 18° |
| 2026-05-05 20:13 | 35.55624 | -76.91211 | 35120 ft | 413 kts | 18° |
| 2026-05-05 20:14 | 35.60773 | -76.88056 | 35108 ft | 414 kts | 18° |
| 2026-05-05 20:14 | 35.65932 | -76.84920 | 35116 ft | 414 kts | 18° |
| 2026-05-05 20:15 | 35.71096 | -76.81792 | 35116 ft | 413 kts | 18° |
| 2026-05-05 20:15 | 35.76253 | -76.78674 | 35110 ft | 413 kts | 18° |
| 2026-05-05 20:16 | 35.81409 | -76.75549 | 35113 ft | 413 kts | 18° |
| 2026-05-05 20:16 | 35.86559 | -76.72381 | 35103 ft | 414 kts | 18° |
| 2026-05-05 20:17 | 35.91706 | -76.69196 | 35105 ft | 415 kts | 19° |
| 2026-05-05 20:17 | 35.96807 | -76.65814 | 35106 ft | 417 kts | 20° |
| 2026-05-05 20:18 | 36.01877 | -76.62322 | 35112 ft | 417 kts | 21° |
| 2026-05-05 20:18 | 36.06954 | -76.58845 | 35103 ft | 417 kts | 20° |
| 2026-05-05 20:19 | 36.12043 | -76.55398 | 35104 ft | 417 kts | 20° |
| 2026-05-05 20:19 | 36.17115 | -76.51976 | 35098 ft | 418 kts | 20° |
| 2026-05-05 20:20 | 36.22220 | -76.48523 | 35119 ft | 418 kts | 21° |
| 2026-05-05 20:20 | 36.27334 | -76.45053 | 35105 ft | 419 kts | 21° |
| 2026-05-05 20:21 | 36.32452 | -76.41576 | 35099 ft | 419 kts | 21° |
| 2026-05-05 20:21 | 36.37572 | -76.38081 | 35097 ft | 420 kts | 21° |
| 2026-05-05 20:22 | 36.42684 | -76.34582 | 35097 ft | 420 kts | 21° |
| 2026-05-05 20:22 | 36.47804 | -76.31079 | 35105 ft | 420 kts | 21° |
| 2026-05-05 20:23 | 36.52931 | -76.27577 | 35087 ft | 421 kts | 21° |
| 2026-05-05 20:23 | 36.58061 | -76.24074 | 35057 ft | 421 kts | 21° |
| 2026-05-05 20:24 | 36.63196 | -76.20553 | 35050 ft | 421 kts | 21° |
| 2026-05-05 20:24 | 36.68325 | -76.17021 | 35064 ft | 421 kts | 21° |
| 2026-05-05 20:25 | 36.73458 | -76.13480 | 35068 ft | 422 kts | 22° |
| 2026-05-05 20:25 | 36.78570 | -76.09954 | 35052 ft | 423 kts | 22° |
| 2026-05-05 20:26 | 36.83724 | -76.06405 | 35049 ft | 423 kts | 22° |
| 2026-05-05 20:26 | 36.88887 | -76.02858 | 35062 ft | 424 kts | 22° |
| 2026-05-05 20:27 | 36.94049 | -75.99295 | 35048 ft | 424 kts | 22° |
| 2026-05-05 20:27 | 36.99212 | -75.95713 | 35042 ft | 425 kts | 22° |
| 2026-05-05 20:28 | 37.04375 | -75.92116 | 35044 ft | 425 kts | 22° |
| 2026-05-05 20:28 | 37.09611 | -75.88775 | 35038 ft | 417 kts | 13° |
| 2026-05-05 20:29 | 37.15139 | -75.86793 | 35027 ft | 413 kts | 9° |
| 2026-05-05 20:29 | 37.20685 | -75.84856 | 35025 ft | 414 kts | 9° |
| 2026-05-05 20:30 | 37.26240 | -75.82917 | 35026 ft | 414 kts | 9° |
| 2026-05-05 20:30 | 37.31760 | -75.80997 | 35028 ft | 414 kts | 9° |
| 2026-05-05 20:31 | 37.37319 | -75.79067 | 35028 ft | 415 kts | 9° |
| 2026-05-05 20:31 | 37.42889 | -75.77133 | 35052 ft | 416 kts | 9° |
| 2026-05-05 20:32 | 37.48469 | -75.75180 | 35040 ft | 416 kts | 9° |
| 2026-05-05 20:32 | 37.54050 | -75.73227 | 35036 ft | 416 kts | 9° |
| 2026-05-05 20:33 | 37.59628 | -75.71272 | 35027 ft | 416 kts | 9° |
| 2026-05-05 20:33 | 37.65209 | -75.69316 | 35030 ft | 416 kts | 9° |
| 2026-05-05 20:34 | 37.70791 | -75.67355 | 35029 ft | 416 kts | 9° |
| 2026-05-05 20:34 | 37.76341 | -75.65398 | 35027 ft | 417 kts | 9° |
| 2026-05-05 20:35 | 37.81923 | -75.63428 | 35052 ft | 418 kts | 11° |
| 2026-05-05 20:35 | 37.87184 | -75.60060 | 35044 ft | 432 kts | 28° |
| 2026-05-05 20:36 | 37.92126 | -75.55730 | 35052 ft | 432 kts | 28° |
| 2026-05-05 20:36 | 37.97079 | -75.51411 | 35028 ft | 432 kts | 27° |
| 2026-05-05 20:37 | 38.02034 | -75.47098 | 35014 ft | 433 kts | 27° |
| 2026-05-05 20:37 | 38.06981 | -75.42815 | 35004 ft | 433 kts | 27° |
| 2026-05-05 20:38 | 38.12037 | -75.38669 | 35021 ft | 432 kts | 26° |
| 2026-05-05 20:38 | 38.17136 | -75.34594 | 35012 ft | 433 kts | 26° |
| 2026-05-05 20:39 | 38.22217 | -75.30487 | 35032 ft | 433 kts | 25° |
| 2026-05-05 20:39 | 38.27665 | -75.27608 | 35027 ft | 419 kts | 7° |
| 2026-05-05 20:40 | 38.33380 | -75.26386 | 35021 ft | 416 kts | 4° |
| 2026-05-05 20:40 | 38.39100 | -75.25194 | 35024 ft | 417 kts | 4° |
| 2026-05-05 20:41 | 38.44799 | -75.23984 | 35032 ft | 417 kts | 4° |
| 2026-05-05 20:41 | 38.50529 | -75.22762 | 35023 ft | 418 kts | 4° |
| 2026-05-05 20:42 | 38.56270 | -75.21555 | 35011 ft | 418 kts | 4° |
| 2026-05-05 20:42 | 38.62008 | -75.20356 | 35012 ft | 418 kts | 4° |
| 2026-05-05 20:43 | 38.67737 | -75.19067 | 34989 ft | 422 kts | 9° |
| 2026-05-05 20:43 | 38.73142 | -75.15862 | 34982 ft | 439 kts | 29° |
| 2026-05-05 20:44 | 38.77194 | -75.11907 | 34979 ft | 441 kts | 31° |
| 2026-05-05 20:44 | 38.82080 | -75.07143 | 34971 ft | 441 kts | 31° |
| 2026-05-05 20:45 | 38.89411 | -74.99973 | 34995 ft | 442 kts | 31° |
| 2026-05-05 20:45 | 38.94296 | -74.95157 | 34981 ft | 443 kts | 31° |
| 2026-05-05 20:46 | 38.99177 | -74.90334 | 34979 ft | 443 kts | 31° |
| 2026-05-05 20:46 | 39.04069 | -74.85493 | 34980 ft | 443 kts | 31° |
| 2026-05-05 20:47 | 39.08959 | -74.80654 | 34977 ft | 444 kts | 31° |
| 2026-05-05 20:47 | 39.13787 | -74.75765 | 34979 ft | 445 kts | 33° |
| 2026-05-05 20:48 | 39.18597 | -74.70717 | 34980 ft | 446 kts | 33° |
| 2026-05-05 20:48 | 39.23401 | -74.65675 | 34989 ft | 445 kts | 33° |
| 2026-05-05 20:49 | 39.28233 | -74.60662 | 34979 ft | 446 kts | 32° |
| 2026-05-05 20:49 | 39.33070 | -74.55650 | 34977 ft | 446 kts | 32° |
| 2026-05-05 20:50 | 39.37903 | -74.50601 | 34949 ft | 447 kts | 33° |
| 2026-05-05 20:50 | 39.42741 | -74.45549 | 34967 ft | 447 kts | 32° |
| 2026-05-05 20:51 | 39.47549 | -74.40523 | 34961 ft | 448 kts | 33° |
| 2026-05-05 20:51 | 39.49995 | -74.37960 | 34838 ft | 446 kts | 33° |
| 2026-05-05 20:51 | 39.52411 | -74.35427 | 34595 ft | 447 kts | 33° |
| 2026-05-05 20:52 | 39.54788 | -74.32932 | 34357 ft | 446 kts | 33° |
| 2026-05-05 20:52 | 39.57198 | -74.30399 | 34119 ft | 445 kts | 33° |
| 2026-05-05 20:52 | 39.59606 | -74.27869 | 33850 ft | 445 kts | 33° |
| 2026-05-05 20:52 | 39.62011 | -74.25345 | 33601 ft | 445 kts | 33° |
| 2026-05-05 20:53 | 39.64421 | -74.22817 | 33312 ft | 445 kts | 33° |
| 2026-05-05 20:53 | 39.66834 | -74.20283 | 32578 ft | 449 kts | 33° |
| 2026-05-05 20:53 | 39.69276 | -74.17718 | 31700 ft | 453 kts | 33° |
| 2026-05-05 20:53 | 39.71711 | -74.15148 | 31217 ft | 448 kts | 34° |
| 2026-05-05 20:54 | 39.74117 | -74.12600 | 30661 ft | 445 kts | 34° |
| 2026-05-05 20:54 | 39.76506 | -74.10066 | 30114 ft | 442 kts | 34° |
| 2026-05-05 20:54 | 39.78880 | -74.07546 | 29517 ft | 438 kts | 34° |
| 2026-05-05 20:54 | 39.81227 | -74.05055 | 28996 ft | 434 kts | 34° |
| 2026-05-05 20:55 | 39.83553 | -74.02586 | 28456 ft | 430 kts | 34° |
| 2026-05-05 20:55 | 39.85860 | -74.00137 | 27946 ft | 426 kts | 34° |
| 2026-05-05 20:55 | 39.88142 | -73.97714 | 27407 ft | 422 kts | 35° |
| 2026-05-05 20:55 | 39.90408 | -73.95303 | 26896 ft | 419 kts | 35° |
| 2026-05-05 20:56 | 39.92653 | -73.92912 | 26402 ft | 416 kts | 35° |
| 2026-05-05 20:56 | 39.94884 | -73.90536 | 25905 ft | 413 kts | 35° |
| 2026-05-05 20:56 | 39.97103 | -73.88172 | 25408 ft | 410 kts | 35° |
| 2026-05-05 20:56 | 39.99307 | -73.85820 | 24948 ft | 408 kts | 35° |
| 2026-05-05 20:57 | 40.01498 | -73.83477 | 24482 ft | 407 kts | 35° |
| 2026-05-05 20:57 | 40.03686 | -73.81134 | 24029 ft | 406 kts | 36° |
| 2026-05-05 20:57 | 40.05862 | -73.78802 | 23600 ft | 404 kts | 35° |
| 2026-05-05 20:57 | 40.08016 | -73.76497 | 23126 ft | 401 kts | 36° |
| 2026-05-05 20:58 | 40.10176 | -73.74187 | 22700 ft | 397 kts | 36° |
| 2026-05-05 20:58 | 40.12301 | -73.71906 | 22271 ft | 393 kts | 36° |
| 2026-05-05 20:58 | 40.14374 | -73.69676 | 21859 ft | 389 kts | 36° |
| 2026-05-05 20:58 | 40.16453 | -73.67434 | 21438 ft | 386 kts | 36° |
| 2026-05-05 20:59 | 40.18516 | -73.65210 | 20997 ft | 383 kts | 36° |
| 2026-05-05 20:59 | 40.20559 | -73.63000 | 20567 ft | 380 kts | 36° |
| 2026-05-05 20:59 | 40.22591 | -73.60795 | 20126 ft | 378 kts | 36° |
| 2026-05-05 20:59 | 40.24613 | -73.58602 | 19683 ft | 377 kts | 36° |
| 2026-05-05 21:00 | 40.26634 | -73.56418 | 19219 ft | 376 kts | 36° |
| 2026-05-05 21:00 | 40.28652 | -73.54238 | 18770 ft | 375 kts | 36° |
| 2026-05-05 21:00 | 40.30664 | -73.52065 | 18308 ft | 375 kts | 36° |
| 2026-05-05 21:00 | 40.32671 | -73.49895 | 17800 ft | 374 kts | 36° |
| 2026-05-05 21:01 | 40.34672 | -73.47750 | 17444 ft | 368 kts | 33° |
| 2026-05-05 21:01 | 40.36812 | -73.45975 | 17029 ft | 360 kts | 22° |
| 2026-05-05 21:01 | 40.39112 | -73.44783 | 16863 ft | 359 kts | 11° |
| 2026-05-05 21:01 | 40.41577 | -73.43937 | 16774 ft | 371 kts | 10° |
| 2026-05-05 21:02 | 40.44084 | -73.43062 | 16687 ft | 374 kts | 10° |
| 2026-05-05 21:02 | 40.46595 | -73.42164 | 16577 ft | 374 kts | 11° |
| 2026-05-05 21:02 | 40.49116 | -73.41245 | 16452 ft | 374 kts | 11° |
| 2026-05-05 21:02 | 40.51619 | -73.40330 | 16330 ft | 374 kts | 11° |
| 2026-05-05 21:03 | 40.54121 | -73.39417 | 16210 ft | 373 kts | 11° |
| 2026-05-05 21:03 | 40.56616 | -73.38507 | 16075 ft | 372 kts | 11° |
| 2026-05-05 21:03 | 40.59078 | -73.37612 | 15969 ft | 371 kts | 11° |
| 2026-05-05 21:03 | 40.61560 | -73.36713 | 15849 ft | 370 kts | 11° |
| 2026-05-05 21:04 | 40.64042 | -73.35820 | 15730 ft | 369 kts | 10° |
| 2026-05-05 21:04 | 40.66508 | -73.34932 | 15612 ft | 369 kts | 10° |
| 2026-05-05 21:04 | 40.68979 | -73.34038 | 15498 ft | 368 kts | 11° |
| 2026-05-05 21:04 | 40.71446 | -73.33142 | 15381 ft | 367 kts | 11° |
| 2026-05-05 21:05 | 40.73893 | -73.32252 | 15258 ft | 359 kts | 10° |
| 2026-05-05 21:05 | 40.76255 | -73.31358 | 15119 ft | 349 kts | 14° |
| 2026-05-05 21:05 | 40.78444 | -73.29925 | 15003 ft | 346 kts | 30° |
| 2026-05-05 21:05 | 40.80267 | -73.27865 | 14750 ft | 347 kts | 45° |
| 2026-05-05 21:06 | 40.81688 | -73.25287 | 14379 ft | 349 kts | 54° |
| 2026-05-05 21:06 | 40.83008 | -73.22594 | 14011 ft | 349 kts | 54° |
| 2026-05-05 21:06 | 40.84326 | -73.19908 | 13694 ft | 346 kts | 54° |
| 2026-05-05 21:06 | 40.85639 | -73.17233 | 13290 ft | 346 kts | 54° |
| 2026-05-05 21:07 | 40.86939 | -73.14583 | 13052 ft | 341 kts | 54° |
| 2026-05-05 21:07 | 40.88231 | -73.11950 | 12607 ft | 342 kts | 54° |
| 2026-05-05 21:07 | 40.89536 | -73.09299 | 12160 ft | 345 kts | 54° |
| 2026-05-05 21:07 | 40.90833 | -73.06656 | 11872 ft | 341 kts | 54° |
| 2026-05-05 21:08 | 40.92104 | -73.04057 | 11507 ft | 341 kts | 54° |
| 2026-05-05 21:08 | 40.93404 | -73.01397 | 11184 ft | 340 kts | 54° |
| 2026-05-05 21:08 | 40.94667 | -72.98812 | 10871 ft | 338 kts | 54° |
| 2026-05-05 21:08 | 40.95939 | -72.96210 | 10546 ft | 337 kts | 54° |
| 2026-05-05 21:09 | 40.97205 | -72.93610 | 10205 ft | 335 kts | 55° |
| 2026-05-05 21:09 | 40.98467 | -72.91017 | 9873 ft | 334 kts | 55° |
| 2026-05-05 21:09 | 40.99720 | -72.88447 | 9517 ft | 333 kts | 54° |
| 2026-05-05 21:09 | 41.01133 | -72.86039 | 9161 ft | 327 kts | 39° |
| 2026-05-05 21:10 | 41.02970 | -72.84348 | 8814 ft | 317 kts | 19° |
| 2026-05-05 21:10 | 41.05035 | -72.83496 | 8388 ft | 308 kts | 1° |
| 2026-05-05 21:10 | 41.07122 | -72.83504 | 8048 ft | 295 kts | 343° |
| 2026-05-05 21:10 | 41.09125 | -72.84017 | 7696 ft | 292 kts | 341° |
| 2026-05-05 21:11 | 41.11110 | -72.84533 | 7392 ft | 290 kts | 341° |
| 2026-05-05 21:11 | 41.12996 | -72.85300 | 7100 ft | 277 kts | 324° |
| 2026-05-05 21:11 | 41.14479 | -72.86820 | 6822 ft | 264 kts | 303° |
| 2026-05-05 21:11 | 41.15414 | -72.88844 | 6550 ft | 254 kts | 284° |
| 2026-05-05 21:12 | 41.15766 | -72.91089 | 6289 ft | 246 kts | 267° |
| 2026-05-05 21:12 | 41.15791 | -72.93358 | 6020 ft | 246 kts | 266° |
| 2026-05-05 21:12 | 41.15819 | -72.95618 | 5934 ft | 246 kts | 266° |
| 2026-05-05 21:12 | 41.15853 | -72.97892 | 5870 ft | 246 kts | 266° |
| 2026-05-05 21:13 | 41.15888 | -73.00163 | 5809 ft | 246 kts | 266° |
| 2026-05-05 21:13 | 41.15923 | -73.02431 | 5721 ft | 246 kts | 266° |
| 2026-05-05 21:13 | 41.15957 | -73.04699 | 5647 ft | 246 kts | 266° |
| 2026-05-05 21:13 | 41.15987 | -73.06968 | 5573 ft | 246 kts | 266° |
| 2026-05-05 21:14 | 41.16017 | -73.09232 | 5497 ft | 245 kts | 266° |
| 2026-05-05 21:14 | 41.16048 | -73.11490 | 5420 ft | 245 kts | 266° |
| 2026-05-05 21:14 | 41.16115 | -73.13750 | 5320 ft | 246 kts | 269° |
| 2026-05-05 21:14 | 41.16271 | -73.16014 | 5251 ft | 247 kts | 271° |
| 2026-05-05 21:15 | 41.16458 | -73.18256 | 5174 ft | 247 kts | 271° |
| 2026-05-05 21:15 | 41.16651 | -73.20515 | 5108 ft | 245 kts | 271° |
| 2026-05-05 21:15 | 41.16842 | -73.22763 | 5020 ft | 244 kts | 271° |
| 2026-05-05 21:15 | 41.17026 | -73.24949 | 4945 ft | 233 kts | 271° |
| 2026-05-05 21:16 | 41.17197 | -73.27032 | 4875 ft | 222 kts | 271° |
| 2026-05-05 21:16 | 41.17357 | -73.29018 | 4808 ft | 210 kts | 270° |
| 2026-05-05 21:16 | 41.17506 | -73.30896 | 4753 ft | 200 kts | 270° |
| 2026-05-05 21:16 | 41.17645 | -73.32726 | 4697 ft | 199 kts | 270° |
| 2026-05-05 21:17 | 41.17782 | -73.34550 | 4630 ft | 198 kts | 270° |
| 2026-05-05 21:17 | 41.17918 | -73.36369 | 4557 ft | 198 kts | 270° |
| 2026-05-05 21:17 | 41.18054 | -73.38192 | 4505 ft | 198 kts | 270° |
| 2026-05-05 21:17 | 41.18192 | -73.40011 | 4434 ft | 198 kts | 269° |
| 2026-05-05 21:18 | 41.18329 | -73.41830 | 4370 ft | 199 kts | 269° |
| 2026-05-05 21:18 | 41.18465 | -73.43658 | 4293 ft | 199 kts | 270° |
| 2026-05-05 21:18 | 41.18601 | -73.45490 | 4248 ft | 199 kts | 270° |
| 2026-05-05 21:18 | 41.18737 | -73.47312 | 4180 ft | 199 kts | 270° |
| 2026-05-05 21:19 | 41.18872 | -73.49142 | 4097 ft | 199 kts | 270° |
| 2026-05-05 21:19 | 41.19008 | -73.50982 | 4015 ft | 200 kts | 270° |
| 2026-05-05 21:19 | 41.19145 | -73.52819 | 4008 ft | 199 kts | 270° |
| 2026-05-05 21:19 | 41.19290 | -73.54640 | 4010 ft | 198 kts | 270° |
| 2026-05-05 21:20 | 41.19440 | -73.56463 | 3973 ft | 199 kts | 270° |
| 2026-05-05 21:20 | 41.19588 | -73.58277 | 3896 ft | 201 kts | 270° |
| 2026-05-05 21:20 | 41.20047 | -73.60053 | 3820 ft | 210 kts | 292° |
| 2026-05-05 21:20 | 41.20858 | -73.61682 | 3748 ft | 212 kts | 296° |
| 2026-05-05 21:21 | 41.21718 | -73.63288 | 3674 ft | 215 kts | 297° |
| 2026-05-05 21:21 | 41.22586 | -73.64898 | 3601 ft | 214 kts | 297° |
| 2026-05-05 21:21 | 41.23449 | -73.66515 | 3552 ft | 214 kts | 297° |
| 2026-05-05 21:21 | 41.24309 | -73.68137 | 3461 ft | 215 kts | 297° |
| 2026-05-05 21:22 | 41.25175 | -73.69762 | 3352 ft | 216 kts | 297° |
| 2026-05-05 21:22 | 41.26046 | -73.71397 | 3257 ft | 216 kts | 297° |
| 2026-05-05 21:22 | 41.26912 | -73.73023 | 3177 ft | 212 kts | 297° |
| 2026-05-05 21:22 | 41.27586 | -73.74662 | 3110 ft | 192 kts | 274° |
| 2026-05-05 21:23 | 41.27441 | -73.76292 | 3034 ft | 174 kts | 236° |
| 2026-05-05 21:23 | 41.26680 | -73.77517 | 2960 ft | 172 kts | 227° |
| 2026-05-05 21:23 | 41.25872 | -73.78709 | 2884 ft | 174 kts | 224° |
| 2026-05-05 21:23 | 41.24800 | -73.79422 | 2784 ft | 178 kts | 193° |
| 2026-05-05 21:24 | 41.23549 | -73.79581 | 2716 ft | 182 kts | 187° |
| 2026-05-05 21:24 | 41.22321 | -73.79666 | 2671 ft | 170 kts | 188° |
| 2026-05-05 21:24 | 41.21159 | -73.79723 | 2590 ft | 164 kts | 188° |
| 2026-05-05 21:24 | 41.20023 | -73.79754 | 2514 ft | 163 kts | 186° |
| 2026-05-05 21:25 | 41.18891 | -73.79775 | 2443 ft | 165 kts | 180° |
| 2026-05-05 21:25 | 41.17824 | -73.79215 | 2381 ft | 163 kts | 158° |
| 2026-05-05 21:25 | 41.16873 | -73.78477 | 2306 ft | 155 kts | 159° |
| 2026-05-05 21:25 | 41.15952 | -73.77770 | 2233 ft | 152 kts | 160° |
| 2026-05-05 21:26 | 41.15044 | -73.77072 | 2105 ft | 145 kts | 160° |
| 2026-05-05 21:26 | 41.14193 | -73.76417 | 1938 ft | 138 kts | 160° |
| 2026-05-05 21:26 | 41.13365 | -73.75784 | 1757 ft | 138 kts | 159° |
| 2026-05-05 21:26 | 41.12534 | -73.75149 | 1584 ft | 138 kts | 158° |
| 2026-05-05 21:27 | 41.11716 | -73.74520 | 1397 ft | 134 kts | 157° |
| 2026-05-05 21:27 | 41.10913 | -73.73904 | 1239 ft | 132 kts | 155° |
| 2026-05-05 21:27 | 41.10118 | -73.73292 | 1038 ft | 130 kts | 156° |
| 2026-05-05 21:27 | 41.09335 | -73.72694 | 900 ft | 133 kts | 154° |
| 2026-05-05 21:28 | 41.08543 | -73.72088 | 695 ft | 130 kts | 153° |
| 2026-05-05 21:28 | 41.07768 | -73.71499 | 537 ft | 128 kts | 153° |
| 2026-05-05 21:28 | 41.07007 | -73.70915 | 415 ft | 118 kts | 150° |
| 2026-05-05 21:28 | 41.06499 | -73.70524 | 400 ft | 43 kts | 149° |
| 2026-05-05 21:29 | 41.06418 | -73.70465 | 398 ft | 8 kts | 149° |
| 2026-05-05 21:29 | 41.06372 | -73.70392 | 393 ft | 10 kts | 107° |
| 2026-05-05 21:29 | 41.06354 | -73.70283 | 391 ft | 9 kts | 103° |
| 2026-05-05 21:29 | 41.06361 | -73.70218 | 390 ft | 7 kts | 37° |
| 2026-05-05 21:30 | 41.06411 | -73.70239 | 390 ft | 9 kts | 329° |
| 2026-05-05 21:30 | 41.06461 | -73.70278 | 393 ft | 7 kts | 329° |
| 2026-05-05 21:30 | 41.06495 | -73.70305 | 392 ft | 5 kts | 329° |
| 2026-05-05 21:30 | 41.06518 | -73.70322 | 397 ft | 6 kts | 330° |
| 2026-05-05 21:31 | 41.06589 | -73.70375 | 400 ft | 10 kts | 330° |
| 2026-05-05 21:31 | 41.06660 | -73.70430 | 404 ft | 12 kts | 329° |
| 2026-05-05 21:31 | 41.06732 | -73.70485 | 408 ft | 11 kts | 330° |
| 2026-05-05 21:31 | 41.06801 | -73.70538 | 408 ft | 12 kts | 329° |
| 2026-05-05 21:32 | 41.06849 | -73.70574 | 409 ft | 5 kts | 335° |
| 2026-05-05 21:32 | 41.06862 | -73.70563 | 409 ft | 4 kts | 54° |
| 2026-05-05 21:32 | 41.06874 | -73.70528 | 407 ft | 3 kts | 75° |
| 2026-05-05 21:32 | 41.06876 | -73.70523 | 405 ft | 0 kts | 68° |